»·PEaware :: AAL255 KNYL-KBUR

AAL255 :: KNYL-KBUR

FLIGHT INFORMATION

Flight Status: Arrived
Operator:
American Airlines
More flights by this operator :: More flights under this callsign
Pilot: Benjamin R. (11326)
Aircraft: BOEING 737-300
(B733)
More flights by this aircraft type
Origin: KNYL Yuma MCAS/Yuma Intl
United States
Destination: KBUR Bob Hope-Burbank
United States
More flights between these airports :: More routes between these airports
Route: +CARGO8 BLH PMD LYNXX8
File this flight plan on PilotEdge
Remarks:
Altitude:
(Current/Filed)
20,000ft
Speed:
(Current/Filed)
350kts
Departed: 14-May-16 09:22 AM
Arrived: 14-May-16 10:17 AM
Distance/Time
Traveled:
209nm/0:54
Distance/Time
To Go:
Arrived

Flight Plot

Page will automatically refresh every two minutes.


Map Options




Map Legend


Flown Route
Filed Route
Departure Airport
Arrival Airport
Navaid (VOR, NDB)
Fix

Horizontal Profiles

Position Reports

Time Latitude Longitude Heading Altitude Ground
Speed
14-May-16 08:42 32.668005 -114.601369 179 219ft 0kts
14-May-16 08:43 32.668005 -114.601369 179 219ft 0kts
14-May-16 08:44 32.668005 -114.601369 179 219ft 0kts
14-May-16 08:45 32.668005 -114.601369 179 219ft 0kts
14-May-16 08:46 32.668005 -114.601369 179 219ft 0kts
14-May-16 08:47 32.668005 -114.601369 179 219ft 0kts
14-May-16 08:48 32.668005 -114.601369 179 219ft 0kts
14-May-16 08:49 32.668005 -114.601369 179 219ft 0kts
14-May-16 08:50 32.668005 -114.601369 179 219ft 0kts
14-May-16 08:51 32.668005 -114.601369 179 219ft 0kts
14-May-16 08:52 32.668005 -114.601369 179 219ft 0kts
14-May-16 08:53 32.668005 -114.601369 179 219ft 0kts
14-May-16 08:54 32.668005 -114.601369 179 219ft 0kts
14-May-16 08:55 32.668005 -114.601369 179 219ft 0kts
14-May-16 08:56 32.668005 -114.601369 179 219ft 0kts
14-May-16 08:57 32.668005 -114.601369 179 219ft 0kts
14-May-16 08:58 32.668005 -114.601369 179 219ft 0kts
14-May-16 08:59 32.668005 -114.601369 179 219ft 0kts
14-May-16 09:00 32.668005 -114.601369 179 219ft 0kts
14-May-16 09:01 32.668005 -114.601369 179 219ft 0kts
14-May-16 09:02 32.668005 -114.601369 179 219ft 0kts
14-May-16 09:03 32.668005 -114.601369 179 219ft 0kts
14-May-16 09:04 32.668005 -114.601369 179 219ft 0kts
14-May-16 09:05 32.668005 -114.601369 179 219ft 0kts
14-May-16 09:06 32.668005 -114.601369 179 219ft 0kts
14-May-16 09:07 32.668005 -114.601369 179 219ft 0kts
14-May-16 09:08 32.668005 -114.601369 179 219ft 0kts
14-May-16 09:09 32.668005 -114.601369 179 219ft 0kts
14-May-16 09:10 32.668005 -114.601369 179 219ft 0kts
14-May-16 09:11 32.668005 -114.601369 179 219ft 0kts
14-May-16 09:12 32.668005 -114.601369 179 219ft 0kts
14-May-16 09:13 32.668005 -114.601369 179 219ft 0kts
14-May-16 09:14 32.667623 -114.601362 175 219ft 3kts
14-May-16 09:15 32.667291 -114.598790 89 219ft 12kts
14-May-16 09:16 32.667335 -114.594289 88 219ft 11kts
14-May-16 09:17 32.667362 -114.592454 89 219ft 0kts
14-May-16 09:18 32.667362 -114.592454 89 219ft 0kts
14-May-16 09:19 32.667364 -114.592021 88 219ft 4kts
14-May-16 09:20 32.667146 -114.591444 222 219ft 0kts
14-May-16 09:21 32.666356 -114.592310 223 219ft 43kts
14-May-16 09:22 32.639448 -114.622666 221 1064ft 171kts
14-May-16 09:23 32.597186 -114.629971 115 2880ft 219kts
14-May-16 09:24 32.638729 -114.591731 350 4953ft 277kts
14-May-16 09:25 32.719614 -114.607088 351 7480ft 301kts
14-May-16 09:26 32.804459 -114.622154 351 10201ft 325kts
14-May-16 09:27 32.902813 -114.639480 351 12103ft 373kts
14-May-16 09:28 33.007315 -114.657913 350 14818ft 387kts
14-May-16 09:29 33.115185 -114.676991 350 17274ft 400kts
14-May-16 09:30 33.207648 -114.693381 349 19167ft 409kts
14-May-16 09:31 33.320857 -114.713497 349 19932ft 414kts
14-May-16 09:32 33.438198 -114.734403 349 19915ft 412kts
14-May-16 09:33 33.551225 -114.754593 349 19918ft 412kts
14-May-16 09:34 33.625863 -114.836377 278 19927ft 387kts
14-May-16 09:35 33.658963 -114.959818 287 19916ft 390kts
14-May-16 09:36 33.698429 -115.081090 288 19917ft 391kts
14-May-16 09:37 33.738542 -115.202511 287 19916ft 391kts
14-May-16 09:38 33.778179 -115.324122 287 19903ft 390kts
14-May-16 09:39 33.815967 -115.440657 287 19886ft 389kts
14-May-16 09:40 33.855086 -115.561768 287 19890ft 390kts
14-May-16 09:41 33.894344 -115.683790 287 19890ft 390kts
14-May-16 09:42 33.933333 -115.805459 287 19895ft 390kts
14-May-16 09:43 33.972265 -115.927440 287 19938ft 390kts
14-May-16 09:44 34.010851 -116.048807 288 19979ft 386kts
14-May-16 09:45 34.049112 -116.168500 288 20022ft 384kts
14-May-16 09:46 34.087277 -116.289106 288 20004ft 384kts
14-May-16 09:47 34.125154 -116.409665 288 19964ft 384kts
14-May-16 09:48 34.162915 -116.530362 288 19963ft 384kts
14-May-16 09:49 34.200482 -116.650922 288 19933ft 384kts
14-May-16 09:50 34.237732 -116.770944 288 19992ft 380kts
14-May-16 09:51 34.274609 -116.890245 288 20053ft 378kts
14-May-16 09:52 34.311411 -117.009785 288 20057ft 379kts
14-May-16 09:53 34.347063 -117.125643 288 20071ft 377kts
14-May-16 09:54 34.383406 -117.244442 286 20043ft 381kts
14-May-16 09:55 34.419710 -117.367060 287 20066ft 390kts
14-May-16 09:56 34.457235 -117.490280 287 20063ft 390kts
14-May-16 09:57 34.494675 -117.613546 287 19977ft 386kts
14-May-16 09:58 34.530820 -117.732964 287 17653ft 373kts
14-May-16 09:59 34.565578 -117.848435 287 15611ft 355kts
14-May-16 10:00 34.598482 -117.958174 287 14065ft 340kts
14-May-16 10:01 34.627552 -118.062235 272 13018ft 326kts
14-May-16 10:02 34.607060 -118.173513 253 9869ft 340kts
14-May-16 10:03 34.584975 -118.273146 253 9544ft 280kts
14-May-16 10:04 34.564823 -118.363070 254 8085ft 268kts
14-May-16 10:05 34.546826 -118.442940 254 7614ft 228kts
14-May-16 10:06 34.526012 -118.514089 222 6400ft 229kts
14-May-16 10:08 34.401412 -118.548370 196 6028ft 232kts
14-May-16 10:09 34.338925 -118.568768 196 6028ft 233kts
14-May-16 10:10 34.287730 -118.585340 196 6034ft 207kts
14-May-16 10:11 34.234008 -118.602411 196 5292ft 198kts
14-May-16 10:12 34.196365 -118.567928 91 4060ft 197kts
14-May-16 10:13 34.199638 -118.503396 89 3001ft 184kts
14-May-16 10:14 34.199035 -118.447990 90 2099ft 152kts
14-May-16 10:15 34.198339 -118.397414 91 1259ft 148kts
14-May-16 10:16 34.197665 -118.353201 90 784ft 25kts
14-May-16 10:17 34.196807 -118.351058 180 784ft 0kts
14-May-16 10:18 34.196795 -118.351058 179 784ft 0kts
14-May-16 10:19 34.196795 -118.351058 179 784ft 0kts
14-May-16 10:20 34.196795 -118.351058 179 784ft 0kts
14-May-16 10:21 34.196795 -118.351058 179 784ft 0kts
14-May-16 10:22 34.196795 -118.351058 179 784ft 0kts
14-May-16 10:23 34.196795 -118.351058 179 784ft 0kts
14-May-16 10:24 34.196795 -118.351058 179 784ft 0kts
14-May-16 10:25 34.196795 -118.351058 179 784ft 0kts
14-May-16 10:26 34.196795 -118.351058 179 784ft 0kts
14-May-16 10:27 34.196795 -118.351058 179 784ft 0kts
14-May-16 10:28 34.196795 -118.351058 179 784ft 0kts
14-May-16 10:29 34.196795 -118.351058 179 784ft 0kts
14-May-16 10:30 34.196795 -118.351058 179 784ft 0kts

Navigation Log

Ident Type
Flight plan parsing failed, navigation log unavailable